EW6754 Weather Reports


Display with metric or nautical units.
time (UTC)temp
F
wind
direction
speed
MPH
gust
MPH
rain 1hr
in
rain 24hr
in
rain mn
in
humidity
%
barometer
mb
20210621133147 83 143 5.0 9.0 0.00 0.08 0.05 81 1018.6
20210621131639 81 167 2.0 8.0 0.01 0.08 0.05 85 1018.6
20210621130236 82 168 3.0 7.0 0.01 0.08 0.05 84 1018.5
20210621124650 82 162 2.0 5.0 0.01 0.08 0.05 84 1018.3
20210621123108 80 125 0.0 4.0 0.01 0.08 0.05 86 1018.4
20210621121618 79 116 0.0 2.0 0.00 0.07 0.04 89 1018.4
20210621120143 77 99 0.0 3.0 0.00 0.07 0.04 89 1018.4
20210621114750 77 110 0.0 5.0 0.00 0.13 0.04 89 1018.5
20210621113106 77 122 3.0 8.0 0.00 0.13 0.04 89 1018.4
20210621111626 77 124 3.0 10.0 0.01 0.13 0.04 89 1018.4
20210621110058 77 145 0.0 0.0 0.04 0.13 0.04 88 1018.3
20210621104617 77 101 0.0 2.0 0.04 0.24 0.04 88 1018.0
20210621103059 76 103 2.0 8.0 0.04 0.24 0.04 89 1018.1
20210621101625 78 105 1.0 4.0 0.03 0.23 0.03 89 1018.1
20210621100100 78 106 0.0 2.0 0.00 0.20 0.00 88 1017.7
20210621094627 78 98 0.0 4.0 0.00 0.20 0.00 88 1017.6
20210621093045 77 235 0.0 0.0 0.00 0.20 0.00 89 1017.5
20210621091543 77 235 0.0 0.0 0.00 0.20 0.00 89 1017.2
20210621090107 77 235 0.0 0.0 0.00 0.20 0.00 89 1017.2
20210621084540 77 235 0.0 0.0 0.00 0.20 0.00 89 1017.2
20210621083024 77 235 0.0 0.0 0.00 0.20 0.00 89 1017.2
20210621081518 77 235 0.0 0.0 0.00 0.20 0.00 89 1017.2
20210621080030 77 235 0.0 0.0 0.00 0.20 0.00 89 1017.2
20210621074614 77 235 0.0 0.0 0.00 0.20 0.00 89 1017.1
20210621073014 77 235 0.0 0.0 0.00 0.20 0.00 89 1017.1
20210621071522 77 235 0.0 0.0 0.00 0.20 0.00 89 1017.2
20210621070013 77 235 0.0 0.0 0.00 0.20 0.00 89 1017.3
20210621064509 77 235 0.0 0.0 0.00 0.20 0.00 89 1017.4
20210621063015 77 235 0.0 0.0 0.00 0.20 0.00 88 1017.6
20210621061518 78 111 0.0 0.0 0.00 0.20 0.00 88 1017.8
20210621060005 78 111 0.0 0.0 0.00 0.20 0.00 88 1017.8
20210621054508 78 111 0.0 0.0 0.00 0.20 0.00 88 1017.9
20210621053136 78 111 0.0 0.0 0.00 0.20 0.00 88 1017.9
20210621051631 78 111 0.0 0.0 0.00 0.20 0.00 88 1018.2
20210621050125 78 111 0.0 1.0 0.00 0.20 0.00 88 1018.4
20210621044620 78 111 0.0 1.0 0.00 0.20 0.00 88 1018.6
20210621043232 78 111 0.0 0.0 0.00 0.20 0.00 88 1018.7
20210621041715 78 135 0.0 1.0 0.00 0.20 0.00 88 1018.7
20210621040206 78 135 0.0 0.0 0.00 0.20 0.00 89 1019.0
20210621034636 78 170 0.0 3.0 0.00 0.20 0.20 89 1019.1
20210621033107 78 100 0.0 0.0 0.00 0.20 0.20 89 1019.4
20210621031711 78 132 0.0 0.0 0.00 0.20 0.20 89 1019.3
20210621030054 79 134 0.0 2.0 0.00 0.20 0.20 89 1019.1
20210621024632 79 134 0.0 0.0 0.00 0.20 0.20 89 1019.2
20210621023206 79 134 0.0 1.0 0.00 0.20 0.20 89 1019.3
20210621021606 79 134 0.0 4.0 0.00 0.20 0.20 88 1019.2
20210621020147 79 133 0.0 2.0 0.00 0.20 0.20 88 1019.2
20210621014556 79 129 0.0 0.0 0.00 0.20 0.20 89 1019.1
20210621013113 79 129 0.0 1.0 0.00 0.20 0.20 88 1018.9
20210621011613 79 122 0.0 4.0 0.00 0.20 0.20 87 1018.9
20210621010118 79 139 0.0 2.0 0.00 0.20 0.20 88 1018.9
20210621004607 79 133 1.0 4.0 0.00 0.20 0.20 87 1018.7
20210621003253 80 117 2.0 5.0 0.00 0.20 0.20 86 1018.6
20210621001552 80 67 0.0 3.0 0.00 0.20 0.20 86 1018.3
20210621000126 80 95 1.0 3.0 0.00 0.20 0.20 87 1018.2
20210620234551 80 179 0.0 1.0 0.00 0.20 0.20 87 1018.2
20210620233044 80 155 0.0 3.0 0.00 0.20 0.20 86 1018.2
20210620231603 80 158 1.0 5.0 0.00 0.20 0.20 85 1017.9
20210620230200 82 130 3.0 8.0 0.00 0.20 0.20 81 1017.7
20210620224616 82 81 3.0 8.0 0.00 0.21 0.20 80 1017.4
20210620223036 83 102 2.0 6.0 0.00 0.21 0.20 78 1017.3
20210620220124 85 134 5.0 11.0 0.00 0.21 0.20 74 1016.9
20210620214552 86 169 4.0 10.0 0.00 0.21 0.20 72 1016.7
20210620213038 86 96 3.0 8.0 0.00 0.21 0.20 71 1016.5
20210620211540 86 122 3.0 9.0 0.00 0.21 0.20 71 1016.4
20210620210055 87 131 3.0 10.0 0.00 0.21 0.20 73 1016.3
20210620204607 86 92 2.0 9.0 0.00 0.21 0.20 72 1016.4
20210620203105 86 133 2.0 6.0 0.00 0.21 0.20 76 1016.6
20210620201537 86 130 4.0 8.0 0.00 0.21 0.20 74 1016.6
20210620200037 86 126 4.0 8.0 0.00 0.21 0.20 75 1016.5
20210620194552 86 141 4.0 9.0 0.02 0.21 0.20 73 1016.6
20210620193200 86 127 4.0 9.0 0.02 0.21 0.20 77 1016.6
20210620191559 85 120 3.0 6.0 0.02 0.21 0.20 80 1017.1
20210620190042 85 142 0.0 8.0 0.02 0.21 0.20 79 1017.3
20210620184600 89 126 2.0 8.0 0.00 0.19 0.18 68 1017.2
20210620183030 88 146 5.0 8.0 0.00 0.19 0.18 69 1017.2
20210620181526 88 146 4.0 10.0 0.00 0.19 0.18 67 1017.2
20210620180105 90 117 5.0 11.0 0.00 0.19 0.18 66 1017.2
20210620174604 88 149 5.0 11.0 0.00 0.19 0.18 68 1017.4
20210620173030 88 142 5.0 12.0 0.00 0.19 0.18 68 1017.7
20210620171549 87 156 5.0 11.0 0.01 0.19 0.18 72 1017.9
20210620170011 86 140 4.0 10.0 0.01 0.19 0.18 73 1017.9
20210620164508 86 105 4.0 13.0 0.01 0.19 0.18 77 1018.1
20210620163025 85 139 3.0 10.0 0.01 0.19 0.18 81 1018.4
20210620161519 87 169 5.0 10.0 0.00 0.18 0.17 74 1018.4
20210620160010 86 160 3.0 7.0 0.00 0.18 0.17 79 1018.5
20210620154536 85 147 3.0 8.0 0.00 0.18 0.17 80 1018.6
20210620153003 85 243 5.0 10.0 0.00 0.18 0.17 77 1018.6
20210620151503 87 158 2.0 10.0 0.00 0.18 0.17 73 1018.7
20210620150231 87 180 3.0 9.0 0.00 0.18 0.17 76 1018.7
20210620144632 86 182 4.0 9.0 0.00 0.18 0.17 77 1018.9
20210620143109 86 153 2.0 10.0 0.00 0.18 0.17 75 1018.9
20210620141631 85 115 4.0 7.0 0.00 0.18 0.17 78 1018.9
20210620140151 84 156 2.0 6.0 0.00 0.18 0.17 83 1018.9
20210620134645 84 117 2.0 7.0 0.00 0.18 0.17 80 1019.0